sensor_id;sensor_type;location;lat;lon;timestamp;temperature;humidity
74513;DHT22;62992;52.052;8.550;2023-01-19T00:00:21;0.90;99.90
74513;DHT22;62992;52.052;8.550;2023-01-19T00:03:05;0.90;99.90
74513;DHT22;62992;52.052;8.550;2023-01-19T00:06:03;0.90;99.90
74513;DHT22;62992;52.052;8.550;2023-01-19T00:08:48;0.90;99.90
74513;DHT22;62992;52.052;8.550;2023-01-19T00:11:33;0.90;99.90
74513;DHT22;62992;52.052;8.550;2023-01-19T00:14:17;0.90;99.90
74513;DHT22;62992;52.052;8.550;2023-01-19T00:17:01;1.00;99.90
74513;DHT22;62992;52.052;8.550;2023-01-19T00:19:45;1.00;99.90
74513;DHT22;62992;52.052;8.550;2023-01-19T00:22:29;1.00;99.90
74513;DHT22;62992;52.052;8.550;2023-01-19T00:25:13;0.90;99.90
74513;DHT22;62992;52.052;8.550;2023-01-19T00:27:57;0.90;99.90
74513;DHT22;62992;52.052;8.550;2023-01-19T00:30:42;0.90;99.90
74513;DHT22;62992;52.052;8.550;2023-01-19T00:33:26;1.00;99.90
74513;DHT22;62992;52.052;8.550;2023-01-19T00:36:11;0.90;99.90
74513;DHT22;62992;52.052;8.550;2023-01-19T00:38:55;1.00;99.90
74513;DHT22;62992;52.052;8.550;2023-01-19T00:41:39;0.90;99.90
74513;DHT22;62992;52.052;8.550;2023-01-19T00:44:42;0.90;99.90
74513;DHT22;62992;52.052;8.550;2023-01-19T00:47:26;0.90;99.90
74513;DHT22;62992;52.052;8.550;2023-01-19T00:50:11;1.00;99.90
74513;DHT22;62992;52.052;8.550;2023-01-19T00:52:57;1.00;99.90
74513;DHT22;62992;52.052;8.550;2023-01-19T00:55:43;0.90;99.90
74513;DHT22;62992;52.052;8.550;2023-01-19T00:58:27;1.00;99.90
74513;DHT22;62992;52.052;8.550;2023-01-19T01:01:12;1.00;99.90
74513;DHT22;62992;52.052;8.550;2023-01-19T01:03:56;1.00;99.90
74513;DHT22;62992;52.052;8.550;2023-01-19T01:06:40;1.10;99.90
74513;DHT22;62992;52.052;8.550;2023-01-19T01:09:24;1.00;99.90
74513;DHT22;62992;52.052;8.550;2023-01-19T01:12:08;1.00;99.90
74513;DHT22;62992;52.052;8.550;2023-01-19T01:14:52;1.10;99.90
74513;DHT22;62992;52.052;8.550;2023-01-19T01:17:36;1.10;99.90
74513;DHT22;62992;52.052;8.550;2023-01-19T01:20:25;1.10;99.90
74513;DHT22;62992;52.052;8.550;2023-01-19T01:23:10;1.10;99.90
74513;DHT22;62992;52.052;8.550;2023-01-19T01:25:55;1.10;99.90
74513;DHT22;62992;52.052;8.550;2023-01-19T01:28:39;1.00;99.90
74513;DHT22;62992;52.052;8.550;2023-01-19T01:31:23;1.00;99.90
74513;DHT22;62992;52.052;8.550;2023-01-19T01:34:07;1.00;99.90
74513;DHT22;62992;52.052;8.550;2023-01-19T01:36:51;1.00;99.90
74513;DHT22;62992;52.052;8.550;2023-01-19T01:39:37;1.00;99.90
74513;DHT22;62992;52.052;8.550;2023-01-19T01:42:26;1.10;99.90
74513;DHT22;62992;52.052;8.550;2023-01-19T01:48:26;1.20;99.90
74513;DHT22;62992;52.052;8.550;2023-01-19T01:51:21;1.20;99.90
74513;DHT22;62992;52.052;8.550;2023-01-19T01:54:20;1.10;99.90
74513;DHT22;62992;52.052;8.550;2023-01-19T01:57:07;1.20;99.90
74513;DHT22;62992;52.052;8.550;2023-01-19T01:59:56;1.20;99.90
74513;DHT22;62992;52.052;8.550;2023-01-19T02:02:41;1.20;99.90
74513;DHT22;62992;52.052;8.550;2023-01-19T02:05:35;1.30;99.90
74513;DHT22;62992;52.052;8.550;2023-01-19T02:08:47;1.30;99.90
74513;DHT22;62992;52.052;8.550;2023-01-19T02:11:52;1.30;99.90
74513;DHT22;62992;52.052;8.550;2023-01-19T02:14:56;1.40;99.90
74513;DHT22;62992;52.052;8.550;2023-01-19T02:17:40;1.40;99.90
74513;DHT22;62992;52.052;8.550;2023-01-19T02:20:26;1.40;99.90
74513;DHT22;62992;52.052;8.550;2023-01-19T02:23:19;1.40;99.90
74513;DHT22;62992;52.052;8.550;2023-01-19T02:26:06;1.40;99.90
74513;DHT22;62992;52.052;8.550;2023-01-19T02:29:01;1.50;99.90
74513;DHT22;62992;52.052;8.550;2023-01-19T02:31:45;1.50;99.90
74513;DHT22;62992;52.052;8.550;2023-01-19T02:34:31;1.50;99.90
74513;DHT22;62992;52.052;8.550;2023-01-19T02:37:16;1.50;99.90
74513;DHT22;62992;52.052;8.550;2023-01-19T02:40:01;1.60;99.90
74513;DHT22;62992;52.052;8.550;2023-01-19T02:42:51;1.60;99.90
74513;DHT22;62992;52.052;8.550;2023-01-19T02:45:36;1.60;99.90
74513;DHT22;62992;52.052;8.550;2023-01-19T02:48:22;1.60;99.90
74513;DHT22;62992;52.052;8.550;2023-01-19T02:51:23;1.60;99.90
74513;DHT22;62992;52.052;8.550;2023-01-19T02:57:25;1.60;99.90
74513;DHT22;62992;52.052;8.550;2023-01-19T03:00:16;1.60;99.90
74513;DHT22;62992;52.052;8.550;2023-01-19T03:06:02;1.60;99.90
74513;DHT22;62992;52.052;8.550;2023-01-19T03:09:27;1.60;99.90
74513;DHT22;62992;52.052;8.550;2023-01-19T03:15:23;1.70;99.90
74513;DHT22;62992;52.052;8.550;2023-01-19T03:18:09;1.60;99.90
74513;DHT22;62992;52.052;8.550;2023-01-19T03:20:58;1.70;99.90
74513;DHT22;62992;52.052;8.550;2023-01-19T03:23:44;1.70;99.90
74513;DHT22;62992;52.052;8.550;2023-01-19T03:26:32;1.70;99.90
74513;DHT22;62992;52.052;8.550;2023-01-19T03:29:18;1.70;99.90
74513;DHT22;62992;52.052;8.550;2023-01-19T03:32:09;1.80;99.90
74513;DHT22;62992;52.052;8.550;2023-01-19T03:34:58;1.70;99.90
74513;DHT22;62992;52.052;8.550;2023-01-19T03:37:45;1.80;99.90
74513;DHT22;62992;52.052;8.550;2023-01-19T03:40:32;1.80;99.90
74513;DHT22;62992;52.052;8.550;2023-01-19T03:43:18;1.80;99.90
74513;DHT22;62992;52.052;8.550;2023-01-19T03:46:04;1.80;99.90
74513;DHT22;62992;52.052;8.550;2023-01-19T03:48:49;1.80;99.90
74513;DHT22;62992;52.052;8.550;2023-01-19T03:51:37;1.80;99.90
74513;DHT22;62992;52.052;8.550;2023-01-19T03:54:22;1.80;99.90
74513;DHT22;62992;52.052;8.550;2023-01-19T03:57:06;1.80;99.90
74513;DHT22;62992;52.052;8.550;2023-01-19T03:59:50;1.80;99.90
74513;DHT22;62992;52.052;8.550;2023-01-19T04:02:35;1.80;99.90
74513;DHT22;62992;52.052;8.550;2023-01-19T04:05:20;1.80;99.90
74513;DHT22;62992;52.052;8.550;2023-01-19T04:08:05;1.80;99.90
74513;DHT22;62992;52.052;8.550;2023-01-19T04:10:49;1.80;99.90
74513;DHT22;62992;52.052;8.550;2023-01-19T04:13:34;1.90;99.90
74513;DHT22;62992;52.052;8.550;2023-01-19T04:16:18;1.90;99.90
74513;DHT22;62992;52.052;8.550;2023-01-19T04:19:03;1.90;99.90
74513;DHT22;62992;52.052;8.550;2023-01-19T04:21:48;1.90;99.90
74513;DHT22;62992;52.052;8.550;2023-01-19T04:24:33;2.00;99.90
74513;DHT22;62992;52.052;8.550;2023-01-19T04:27:17;2.00;99.90
74513;DHT22;62992;52.052;8.550;2023-01-19T04:30:03;2.00;99.90
74513;DHT22;62992;52.052;8.550;2023-01-19T04:32:47;2.00;99.90
74513;DHT22;62992;52.052;8.550;2023-01-19T04:35:32;2.00;99.90
74513;DHT22;62992;52.052;8.550;2023-01-19T04:38:18;2.00;99.90
74513;DHT22;62992;52.052;8.550;2023-01-19T04:41:03;2.00;99.90
74513;DHT22;62992;52.052;8.550;2023-01-19T04:43:47;2.00;99.90
74513;DHT22;62992;52.052;8.550;2023-01-19T04:46:31;2.00;99.90
74513;DHT22;62992;52.052;8.550;2023-01-19T04:49:15;2.00;99.90
74513;DHT22;62992;52.052;8.550;2023-01-19T04:51:59;2.00;99.90
74513;DHT22;62992;52.052;8.550;2023-01-19T04:54:43;2.10;99.90
74513;DHT22;62992;52.052;8.550;2023-01-19T04:57:28;2.10;99.90
74513;DHT22;62992;52.052;8.550;2023-01-19T05:00:13;2.10;99.90
74513;DHT22;62992;52.052;8.550;2023-01-19T05:02:57;2.10;99.90
74513;DHT22;62992;52.052;8.550;2023-01-19T05:05:41;2.10;99.90
74513;DHT22;62992;52.052;8.550;2023-01-19T05:08:25;2.10;99.90
74513;DHT22;62992;52.052;8.550;2023-01-19T05:11:09;2.10;99.90
74513;DHT22;62992;52.052;8.550;2023-01-19T05:13:53;2.10;99.90
74513;DHT22;62992;52.052;8.550;2023-01-19T05:16:37;2.10;99.90
74513;DHT22;62992;52.052;8.550;2023-01-19T05:19:21;2.20;99.90
74513;DHT22;62992;52.052;8.550;2023-01-19T05:22:06;2.20;99.90
74513;DHT22;62992;52.052;8.550;2023-01-19T05:24:50;2.20;99.90
74513;DHT22;62992;52.052;8.550;2023-01-19T05:27:35;2.20;99.90
74513;DHT22;62992;52.052;8.550;2023-01-19T05:30:19;2.20;99.90
74513;DHT22;62992;52.052;8.550;2023-01-19T05:33:03;2.20;99.90
74513;DHT22;62992;52.052;8.550;2023-01-19T05:35:49;2.20;99.90
74513;DHT22;62992;52.052;8.550;2023-01-19T05:38:33;2.30;99.90
74513;DHT22;62992;52.052;8.550;2023-01-19T05:41:17;2.30;99.90
74513;DHT22;62992;52.052;8.550;2023-01-19T05:44:02;2.30;99.90
74513;DHT22;62992;52.052;8.550;2023-01-19T05:46:46;2.30;99.90
74513;DHT22;62992;52.052;8.550;2023-01-19T05:49:30;2.30;99.90
74513;DHT22;62992;52.052;8.550;2023-01-19T05:52:14;2.30;99.90
74513;DHT22;62992;52.052;8.550;2023-01-19T05:54:58;2.20;99.90
74513;DHT22;62992;52.052;8.550;2023-01-19T05:57:42;2.20;99.90
74513;DHT22;62992;52.052;8.550;2023-01-19T06:00:26;2.30;99.90
74513;DHT22;62992;52.052;8.550;2023-01-19T06:03:11;2.20;99.90
74513;DHT22;62992;52.052;8.550;2023-01-19T06:05:57;2.20;99.90
74513;DHT22;62992;52.052;8.550;2023-01-19T06:08:41;2.20;99.90
74513;DHT22;62992;52.052;8.550;2023-01-19T06:11:25;2.10;99.90
74513;DHT22;62992;52.052;8.550;2023-01-19T06:14:10;2.10;99.90
74513;DHT22;62992;52.052;8.550;2023-01-19T06:16:55;2.10;99.90
74513;DHT22;62992;52.052;8.550;2023-01-19T06:19:39;2.00;99.90
74513;DHT22;62992;52.052;8.550;2023-01-19T06:22:23;2.00;99.90
74513;DHT22;62992;52.052;8.550;2023-01-19T06:25:08;2.00;99.90
74513;DHT22;62992;52.052;8.550;2023-01-19T06:27:52;2.00;99.90
74513;DHT22;62992;52.052;8.550;2023-01-19T06:30:36;1.90;99.90
74513;DHT22;62992;52.052;8.550;2023-01-19T06:33:21;1.90;99.90
74513;DHT22;62992;52.052;8.550;2023-01-19T06:36:05;1.90;99.90
74513;DHT22;62992;52.052;8.550;2023-01-19T06:38:49;1.90;99.90
74513;DHT22;62992;52.052;8.550;2023-01-19T06:41:34;1.80;99.90
74513;DHT22;62992;52.052;8.550;2023-01-19T06:44:18;1.80;99.90
74513;DHT22;62992;52.052;8.550;2023-01-19T06:47:02;1.80;99.90
74513;DHT22;62992;52.052;8.550;2023-01-19T06:49:46;1.80;99.90
74513;DHT22;62992;52.052;8.550;2023-01-19T06:52:32;1.80;99.90
74513;DHT22;62992;52.052;8.550;2023-01-19T06:55:16;1.70;99.90
74513;DHT22;62992;52.052;8.550;2023-01-19T06:58:01;1.60;99.90
74513;DHT22;62992;52.052;8.550;2023-01-19T07:00:45;1.70;99.90
74513;DHT22;62992;52.052;8.550;2023-01-19T07:03:30;1.70;99.90
74513;DHT22;62992;52.052;8.550;2023-01-19T07:06:14;1.60;99.90
74513;DHT22;62992;52.052;8.550;2023-01-19T07:08:58;1.60;99.90
74513;DHT22;62992;52.052;8.550;2023-01-19T07:11:43;1.50;99.90
74513;DHT22;62992;52.052;8.550;2023-01-19T07:14:27;1.50;99.90
74513;DHT22;62992;52.052;8.550;2023-01-19T07:17:16;1.50;99.90
74513;DHT22;62992;52.052;8.550;2023-01-19T07:20:00;1.40;99.90
74513;DHT22;62992;52.052;8.550;2023-01-19T07:22:44;1.50;99.90
74513;DHT22;62992;52.052;8.550;2023-01-19T07:25:31;1.50;99.90
74513;DHT22;62992;52.052;8.550;2023-01-19T07:28:15;1.40;99.90
74513;DHT22;62992;52.052;8.550;2023-01-19T07:30:59;1.40;99.90
74513;DHT22;62992;52.052;8.550;2023-01-19T07:33:44;1.40;99.90
74513;DHT22;62992;52.052;8.550;2023-01-19T07:36:28;1.40;99.90
74513;DHT22;62992;52.052;8.550;2023-01-19T07:39:13;1.40;99.90
74513;DHT22;62992;52.052;8.550;2023-01-19T07:41:58;1.30;99.90
74513;DHT22;62992;52.052;8.550;2023-01-19T07:44:42;1.30;99.90
74513;DHT22;62992;52.052;8.550;2023-01-19T07:47:26;1.30;99.90
74513;DHT22;62992;52.052;8.550;2023-01-19T07:50:11;1.30;99.90
74513;DHT22;62992;52.052;8.550;2023-01-19T07:52:56;1.30;99.90
74513;DHT22;62992;52.052;8.550;2023-01-19T07:55:40;1.30;99.90
74513;DHT22;62992;52.052;8.550;2023-01-19T07:58:24;1.30;99.90
74513;DHT22;62992;52.052;8.550;2023-01-19T08:01:11;1.20;99.90
74513;DHT22;62992;52.052;8.550;2023-01-19T08:03:55;1.30;99.90
74513;DHT22;62992;52.052;8.550;2023-01-19T08:06:39;1.40;99.90
74513;DHT22;62992;52.052;8.550;2023-01-19T08:09:27;1.30;99.90
74513;DHT22;62992;52.052;8.550;2023-01-19T08:12:11;1.30;99.90
74513;DHT22;62992;52.052;8.550;2023-01-19T08:14:55;1.40;99.90
74513;DHT22;62992;52.052;8.550;2023-01-19T08:17:39;1.40;99.90
74513;DHT22;62992;52.052;8.550;2023-01-19T08:20:24;1.40;99.90
74513;DHT22;62992;52.052;8.550;2023-01-19T08:23:09;1.40;99.90
74513;DHT22;62992;52.052;8.550;2023-01-19T08:25:53;1.40;99.90
74513;DHT22;62992;52.052;8.550;2023-01-19T08:28:38;1.40;99.90
74513;DHT22;62992;52.052;8.550;2023-01-19T08:31:22;1.40;99.90
74513;DHT22;62992;52.052;8.550;2023-01-19T08:34:06;1.40;99.90
74513;DHT22;62992;52.052;8.550;2023-01-19T08:36:50;1.40;99.90
74513;DHT22;62992;52.052;8.550;2023-01-19T08:39:34;1.40;99.90
74513;DHT22;62992;52.052;8.550;2023-01-19T08:42:19;1.40;99.90
74513;DHT22;62992;52.052;8.550;2023-01-19T08:45:03;1.40;99.90
74513;DHT22;62992;52.052;8.550;2023-01-19T08:47:47;1.50;99.90
74513;DHT22;62992;52.052;8.550;2023-01-19T08:50:32;1.60;99.90
74513;DHT22;62992;52.052;8.550;2023-01-19T08:53:17;1.60;99.90
74513;DHT22;62992;52.052;8.550;2023-01-19T08:56:04;1.80;99.90
74513;DHT22;62992;52.052;8.550;2023-01-19T08:58:50;1.70;99.90
74513;DHT22;62992;52.052;8.550;2023-01-19T09:01:35;1.70;99.90
74513;DHT22;62992;52.052;8.550;2023-01-19T09:04:20;1.70;99.90
74513;DHT22;62992;52.052;8.550;2023-01-19T09:07:04;1.80;99.90
74513;DHT22;62992;52.052;8.550;2023-01-19T09:09:48;1.70;99.90
74513;DHT22;62992;52.052;8.550;2023-01-19T09:12:32;1.80;99.90
74513;DHT22;62992;52.052;8.550;2023-01-19T09:15:16;1.80;99.90
74513;DHT22;62992;52.052;8.550;2023-01-19T09:18:01;1.70;99.90
74513;DHT22;62992;52.052;8.550;2023-01-19T09:20:47;1.70;99.90
74513;DHT22;62992;52.052;8.550;2023-01-19T09:23:32;1.70;99.90
74513;DHT22;62992;52.052;8.550;2023-01-19T09:26:17;1.70;99.90
74513;DHT22;62992;52.052;8.550;2023-01-19T09:29:01;1.60;99.90
74513;DHT22;62992;52.052;8.550;2023-01-19T09:31:44;1.60;99.90
74513;DHT22;62992;52.052;8.550;2023-01-19T09:34:28;1.60;99.90
74513;DHT22;62992;52.052;8.550;2023-01-19T09:37:14;1.60;99.90
74513;DHT22;62992;52.052;8.550;2023-01-19T09:39:59;1.70;99.90
74513;DHT22;62992;52.052;8.550;2023-01-19T09:42:52;1.70;99.90
74513;DHT22;62992;52.052;8.550;2023-01-19T09:46:02;1.70;99.90
74513;DHT22;62992;52.052;8.550;2023-01-19T09:48:52;1.70;99.90
74513;DHT22;62992;52.052;8.550;2023-01-19T09:51:39;1.80;99.90
74513;DHT22;62992;52.052;8.550;2023-01-19T09:54:30;1.80;99.90
74513;DHT22;62992;52.052;8.550;2023-01-19T09:57:20;1.80;99.90
74513;DHT22;62992;52.052;8.550;2023-01-19T10:00:14;1.80;99.90
74513;DHT22;62992;52.052;8.550;2023-01-19T10:03:15;1.80;99.90
74513;DHT22;62992;52.052;8.550;2023-01-19T10:06:06;1.90;99.90
74513;DHT22;62992;52.052;8.550;2023-01-19T10:09:16;1.90;99.90
74513;DHT22;62992;52.052;8.550;2023-01-19T10:18:46;1.50;99.90
74513;DHT22;62992;52.052;8.550;2023-01-19T10:21:40;1.50;99.90
74513;DHT22;62992;52.052;8.550;2023-01-19T10:24:28;1.50;99.90
74513;DHT22;62992;52.052;8.550;2023-01-19T10:27:16;1.40;99.90
74513;DHT22;62992;52.052;8.550;2023-01-19T10:30:06;1.40;99.90
74513;DHT22;62992;52.052;8.550;2023-01-19T10:32:53;1.30;99.90
74513;DHT22;62992;52.052;8.550;2023-01-19T10:35:37;1.40;99.90
74513;DHT22;62992;52.052;8.550;2023-01-19T10:38:22;1.40;99.90
74513;DHT22;62992;52.052;8.550;2023-01-19T10:41:13;1.50;99.90
74513;DHT22;62992;52.052;8.550;2023-01-19T10:44:03;1.60;99.90
74513;DHT22;62992;52.052;8.550;2023-01-19T10:46:47;1.70;99.90
74513;DHT22;62992;52.052;8.550;2023-01-19T10:49:38;1.80;99.90
74513;DHT22;62992;52.052;8.550;2023-01-19T10:52:29;1.80;99.90
74513;DHT22;62992;52.052;8.550;2023-01-19T10:58:28;1.90;99.90
74513;DHT22;62992;52.052;8.550;2023-01-19T11:01:19;1.90;99.90
74513;DHT22;62992;52.052;8.550;2023-01-19T11:04:27;1.80;99.90
74513;DHT22;62992;52.052;8.550;2023-01-19T11:13:02;1.80;99.90
74513;DHT22;62992;52.052;8.550;2023-01-19T11:15:53;1.90;99.90
74513;DHT22;62992;52.052;8.550;2023-01-19T11:18:39;2.10;99.90
74513;DHT22;62992;52.052;8.550;2023-01-19T11:21:26;2.10;99.90
74513;DHT22;62992;52.052;8.550;2023-01-19T11:24:10;2.10;99.90
74513;DHT22;62992;52.052;8.550;2023-01-19T11:26:59;2.10;99.90
74513;DHT22;62992;52.052;8.550;2023-01-19T11:29:49;2.20;99.90
74513;DHT22;62992;52.052;8.550;2023-01-19T11:32:36;2.20;99.90
74513;DHT22;62992;52.052;8.550;2023-01-19T11:38:18;2.30;99.90
74513;DHT22;62992;52.052;8.550;2023-01-19T11:41:02;2.30;99.90
74513;DHT22;62992;52.052;8.550;2023-01-19T11:43:52;2.30;99.90
74513;DHT22;62992;52.052;8.550;2023-01-19T11:46:38;2.30;99.90
74513;DHT22;62992;52.052;8.550;2023-01-19T11:52:27;2.50;99.90
74513;DHT22;62992;52.052;8.550;2023-01-19T11:55:37;2.50;99.90
74513;DHT22;62992;52.052;8.550;2023-01-19T11:58:24;2.60;99.90
74513;DHT22;62992;52.052;8.550;2023-01-19T12:01:13;2.60;99.90
74513;DHT22;62992;52.052;8.550;2023-01-19T12:04:10;2.70;99.90
74513;DHT22;62992;52.052;8.550;2023-01-19T12:06:56;2.60;99.90
74513;DHT22;62992;52.052;8.550;2023-01-19T12:09:44;2.60;99.90
74513;DHT22;62992;52.052;8.550;2023-01-19T12:12:31;2.70;99.90
74513;DHT22;62992;52.052;8.550;2023-01-19T12:15:25;2.70;99.90
74513;DHT22;62992;52.052;8.550;2023-01-19T12:18:20;2.70;99.90
74513;DHT22;62992;52.052;8.550;2023-01-19T12:21:04;2.70;99.90
74513;DHT22;62992;52.052;8.550;2023-01-19T12:27:06;2.50;99.90
74513;DHT22;62992;52.052;8.550;2023-01-19T12:29:56;2.60;99.90
74513;DHT22;62992;52.052;8.550;2023-01-19T12:32:41;2.60;99.90
74513;DHT22;62992;52.052;8.550;2023-01-19T12:35:55;2.50;99.90
74513;DHT22;62992;52.052;8.550;2023-01-19T12:38:53;2.60;99.90
74513;DHT22;62992;52.052;8.550;2023-01-19T12:41:39;2.70;99.90
74513;DHT22;62992;52.052;8.550;2023-01-19T12:44:24;2.60;99.90
74513;DHT22;62992;52.052;8.550;2023-01-19T12:50:04;2.70;99.90
74513;DHT22;62992;52.052;8.550;2023-01-19T12:52:55;2.90;99.90
74513;DHT22;62992;52.052;8.550;2023-01-19T12:55:41;3.00;99.90
74513;DHT22;62992;52.052;8.550;2023-01-19T12:58:29;3.00;99.90
74513;DHT22;62992;52.052;8.550;2023-01-19T13:01:17;2.90;99.90
74513;DHT22;62992;52.052;8.550;2023-01-19T13:04:37;3.00;99.90
74513;DHT22;62992;52.052;8.550;2023-01-19T13:07:14;3.00;99.90
74513;DHT22;62992;52.052;8.550;2023-01-19T13:10:22;3.10;99.90
74513;DHT22;62992;52.052;8.550;2023-01-19T13:13:19;3.20;99.90
74513;DHT22;62992;52.052;8.550;2023-01-19T13:21:48;3.30;99.90
74513;DHT22;62992;52.052;8.550;2023-01-19T13:25:12;3.20;99.90
74513;DHT22;62992;52.052;8.550;2023-01-19T13:27:56;3.30;99.90
74513;DHT22;62992;52.052;8.550;2023-01-19T13:30:54;3.20;99.90
74513;DHT22;62992;52.052;8.550;2023-01-19T13:33:47;3.30;99.90
74513;DHT22;62992;52.052;8.550;2023-01-19T13:36:35;3.20;99.90
74513;DHT22;62992;52.052;8.550;2023-01-19T13:39:36;3.30;99.90
74513;DHT22;62992;52.052;8.550;2023-01-19T13:42:34;3.20;99.90
74513;DHT22;62992;52.052;8.550;2023-01-19T13:45:29;3.20;99.90
74513;DHT22;62992;52.052;8.550;2023-01-19T13:48:17;3.10;99.90
74513;DHT22;62992;52.052;8.550;2023-01-19T13:51:05;3.10;99.90
74513;DHT22;62992;52.052;8.550;2023-01-19T13:53:55;3.10;99.90
74513;DHT22;62992;52.052;8.550;2023-01-19T13:56:39;3.10;99.90
74513;DHT22;62992;52.052;8.550;2023-01-19T13:59:25;3.20;99.90
74513;DHT22;62992;52.052;8.550;2023-01-19T14:02:12;3.10;99.90
74513;DHT22;62992;52.052;8.550;2023-01-19T14:04:57;3.00;99.90
74513;DHT22;62992;52.052;8.550;2023-01-19T14:07:41;2.90;99.90
74513;DHT22;62992;52.052;8.550;2023-01-19T14:10:26;2.70;99.90
74513;DHT22;62992;52.052;8.550;2023-01-19T14:13:25;2.70;99.90
74513;DHT22;62992;52.052;8.550;2023-01-19T14:16:15;2.50;99.90
74513;DHT22;62992;52.052;8.550;2023-01-19T14:19:01;2.50;99.90
74513;DHT22;62992;52.052;8.550;2023-01-19T14:22:03;2.40;99.90
74513;DHT22;62992;52.052;8.550;2023-01-19T14:24:47;2.40;99.90
74513;DHT22;62992;52.052;8.550;2023-01-19T14:27:31;2.40;99.90
74513;DHT22;62992;52.052;8.550;2023-01-19T14:30:21;2.30;99.90
74513;DHT22;62992;52.052;8.550;2023-01-19T14:33:40;2.30;99.90
74513;DHT22;62992;52.052;8.550;2023-01-19T14:36:43;2.30;99.90
74513;DHT22;62992;52.052;8.550;2023-01-19T14:39:30;2.20;99.90
74513;DHT22;62992;52.052;8.550;2023-01-19T14:42:31;2.20;99.90
74513;DHT22;62992;52.052;8.550;2023-01-19T14:48:19;2.20;99.90
74513;DHT22;62992;52.052;8.550;2023-01-19T14:51:05;2.20;99.90
74513;DHT22;62992;52.052;8.550;2023-01-19T14:53:52;2.10;99.90
74513;DHT22;62992;52.052;8.550;2023-01-19T14:56:37;2.10;99.90
74513;DHT22;62992;52.052;8.550;2023-01-19T14:59:22;2.10;99.90
74513;DHT22;62992;52.052;8.550;2023-01-19T15:02:07;2.10;99.90
74513;DHT22;62992;52.052;8.550;2023-01-19T15:04:51;2.10;99.90
74513;DHT22;62992;52.052;8.550;2023-01-19T15:07:40;2.00;99.90
74513;DHT22;62992;52.052;8.550;2023-01-19T15:10:25;2.00;99.90
74513;DHT22;62992;52.052;8.550;2023-01-19T15:13:20;2.00;99.90
74513;DHT22;62992;52.052;8.550;2023-01-19T15:16:06;2.00;99.90
74513;DHT22;62992;52.052;8.550;2023-01-19T15:18:51;2.10;99.90
74513;DHT22;62992;52.052;8.550;2023-01-19T15:21:36;2.20;99.90
74513;DHT22;62992;52.052;8.550;2023-01-19T15:24:24;2.20;99.90
74513;DHT22;62992;52.052;8.550;2023-01-19T15:27:10;2.40;99.90
74513;DHT22;62992;52.052;8.550;2023-01-19T15:29:54;2.40;99.90
74513;DHT22;62992;52.052;8.550;2023-01-19T15:32:39;2.30;99.90
74513;DHT22;62992;52.052;8.550;2023-01-19T15:35:26;2.50;99.90
74513;DHT22;62992;52.052;8.550;2023-01-19T15:38:10;2.40;99.90
74513;DHT22;62992;52.052;8.550;2023-01-19T15:40:54;2.40;99.90
74513;DHT22;62992;52.052;8.550;2023-01-19T15:43:39;2.40;99.90
74513;DHT22;62992;52.052;8.550;2023-01-19T15:46:24;2.40;99.90
74513;DHT22;62992;52.052;8.550;2023-01-19T15:49:08;2.40;99.90
74513;DHT22;62992;52.052;8.550;2023-01-19T15:51:53;2.40;99.90
74513;DHT22;62992;52.052;8.550;2023-01-19T15:54:37;2.40;99.90
74513;DHT22;62992;52.052;8.550;2023-01-19T15:57:21;2.40;99.90
74513;DHT22;62992;52.052;8.550;2023-01-19T16:00:05;2.30;99.90
74513;DHT22;62992;52.052;8.550;2023-01-19T16:02:50;2.30;99.90
74513;DHT22;62992;52.052;8.550;2023-01-19T16:05:34;2.30;99.90
74513;DHT22;62992;52.052;8.550;2023-01-19T16:08:19;2.30;99.90
74513;DHT22;62992;52.052;8.550;2023-01-19T16:11:05;2.30;99.90
74513;DHT22;62992;52.052;8.550;2023-01-19T16:13:50;2.30;99.90
74513;DHT22;62992;52.052;8.550;2023-01-19T16:16:35;2.30;99.90
74513;DHT22;62992;52.052;8.550;2023-01-19T16:19:19;2.20;99.90
74513;DHT22;62992;52.052;8.550;2023-01-19T16:22:03;2.20;99.90
74513;DHT22;62992;52.052;8.550;2023-01-19T16:24:48;2.30;99.90
74513;DHT22;62992;52.052;8.550;2023-01-19T16:27:33;2.20;99.90
74513;DHT22;62992;52.052;8.550;2023-01-19T16:30:17;2.20;99.90
74513;DHT22;62992;52.052;8.550;2023-01-19T16:33:02;2.20;99.90
74513;DHT22;62992;52.052;8.550;2023-01-19T16:35:48;2.20;99.90
74513;DHT22;62992;52.052;8.550;2023-01-19T16:38:32;2.20;99.90
74513;DHT22;62992;52.052;8.550;2023-01-19T16:41:16;2.10;99.90
74513;DHT22;62992;52.052;8.550;2023-01-19T16:44:01;2.10;99.90
74513;DHT22;62992;52.052;8.550;2023-01-19T16:46:46;2.10;99.90
74513;DHT22;62992;52.052;8.550;2023-01-19T16:49:32;2.00;99.90
74513;DHT22;62992;52.052;8.550;2023-01-19T16:52:16;2.00;99.90
74513;DHT22;62992;52.052;8.550;2023-01-19T16:55:00;1.90;99.90
74513;DHT22;62992;52.052;8.550;2023-01-19T16:57:49;1.90;99.90
74513;DHT22;62992;52.052;8.550;2023-01-19T17:00:35;1.90;99.90
74513;DHT22;62992;52.052;8.550;2023-01-19T17:03:20;1.90;99.90
74513;DHT22;62992;52.052;8.550;2023-01-19T17:06:06;1.90;99.90
74513;DHT22;62992;52.052;8.550;2023-01-19T17:08:51;1.90;99.90
74513;DHT22;62992;52.052;8.550;2023-01-19T17:11:35;1.90;99.90
74513;DHT22;62992;52.052;8.550;2023-01-19T17:14:20;1.90;99.90
74513;DHT22;62992;52.052;8.550;2023-01-19T17:17:04;1.90;99.90
74513;DHT22;62992;52.052;8.550;2023-01-19T17:19:48;1.90;99.90
74513;DHT22;62992;52.052;8.550;2023-01-19T17:22:32;1.90;99.90
74513;DHT22;62992;52.052;8.550;2023-01-19T17:25:16;1.90;99.90
74513;DHT22;62992;52.052;8.550;2023-01-19T17:28:00;1.90;99.90
74513;DHT22;62992;52.052;8.550;2023-01-19T17:30:44;1.90;99.90
74513;DHT22;62992;52.052;8.550;2023-01-19T17:33:28;1.90;99.90
74513;DHT22;62992;52.052;8.550;2023-01-19T17:36:15;1.90;99.90
74513;DHT22;62992;52.052;8.550;2023-01-19T17:39:03;1.90;99.90
74513;DHT22;62992;52.052;8.550;2023-01-19T17:41:47;1.90;99.90
74513;DHT22;62992;52.052;8.550;2023-01-19T17:44:31;1.90;99.90
74513;DHT22;62992;52.052;8.550;2023-01-19T17:47:15;1.90;99.90
74513;DHT22;62992;52.052;8.550;2023-01-19T17:49:59;1.90;99.90
74513;DHT22;62992;52.052;8.550;2023-01-19T17:52:43;1.90;99.90
74513;DHT22;62992;52.052;8.550;2023-01-19T17:55:27;1.90;99.90
74513;DHT22;62992;52.052;8.550;2023-01-19T17:58:12;1.90;99.90
74513;DHT22;62992;52.052;8.550;2023-01-19T18:00:56;1.90;99.90
74513;DHT22;62992;52.052;8.550;2023-01-19T18:03:41;1.90;99.90
74513;DHT22;62992;52.052;8.550;2023-01-19T18:06:26;1.80;99.90
74513;DHT22;62992;52.052;8.550;2023-01-19T18:09:10;1.80;99.90
74513;DHT22;62992;52.052;8.550;2023-01-19T18:11:54;1.80;99.90
74513;DHT22;62992;52.052;8.550;2023-01-19T18:14:38;1.70;99.90
74513;DHT22;62992;52.052;8.550;2023-01-19T18:17:24;1.70;99.90
74513;DHT22;62992;52.052;8.550;2023-01-19T18:20:08;1.70;99.90
74513;DHT22;62992;52.052;8.550;2023-01-19T18:22:53;1.80;99.90
74513;DHT22;62992;52.052;8.550;2023-01-19T18:25:37;1.80;99.90
74513;DHT22;62992;52.052;8.550;2023-01-19T18:28:22;1.80;99.90
74513;DHT22;62992;52.052;8.550;2023-01-19T18:31:08;1.80;99.90
74513;DHT22;62992;52.052;8.550;2023-01-19T18:33:53;1.80;99.90
74513;DHT22;62992;52.052;8.550;2023-01-19T18:36:37;1.90;99.90
74513;DHT22;62992;52.052;8.550;2023-01-19T18:39:21;1.90;99.90